sensor_id;sensor_type;location;lat;lon;timestamp;P1;durP1;ratioP1;P2;durP2;ratioP2
2546;SDS011;1283;47.982;7.834;2022-10-19T00:01:26;9.65;;;5.95;;
2546;SDS011;1283;47.982;7.834;2022-10-19T00:03:53;9.82;;;4.85;;
2546;SDS011;1283;47.982;7.834;2022-10-19T00:06:21;15.43;;;4.63;;
2546;SDS011;1283;47.982;7.834;2022-10-19T00:08:49;12.05;;;4.10;;
2546;SDS011;1283;47.982;7.834;2022-10-19T00:11:16;10.10;;;4.03;;
2546;SDS011;1283;47.982;7.834;2022-10-19T00:13:44;15.65;;;4.13;;
2546;SDS011;1283;47.982;7.834;2022-10-19T00:16:11;15.00;;;5.47;;
2546;SDS011;1283;47.982;7.834;2022-10-19T00:18:39;14.80;;;4.85;;
2546;SDS011;1283;47.982;7.834;2022-10-19T00:21:07;8.68;;;4.32;;
2546;SDS011;1283;47.982;7.834;2022-10-19T00:23:35;11.77;;;4.60;;
2546;SDS011;1283;47.982;7.834;2022-10-19T00:26:01;11.32;;;4.45;;
2546;SDS011;1283;47.982;7.834;2022-10-19T00:28:28;13.32;;;4.60;;
2546;SDS011;1283;47.982;7.834;2022-10-19T00:30:56;12.63;;;4.25;;
2546;SDS011;1283;47.982;7.834;2022-10-19T00:33:27;9.80;;;4.35;;
2546;SDS011;1283;47.982;7.834;2022-10-19T00:35:53;16.38;;;4.80;;
2546;SDS011;1283;47.982;7.834;2022-10-19T00:38:20;8.98;;;3.95;;
2546;SDS011;1283;47.982;7.834;2022-10-19T00:40:47;12.00;;;3.92;;
2546;SDS011;1283;47.982;7.834;2022-10-19T00:43:14;9.02;;;4.00;;
2546;SDS011;1283;47.982;7.834;2022-10-19T00:45:42;8.02;;;3.60;;
2546;SDS011;1283;47.982;7.834;2022-10-19T00:48:10;5.65;;;3.40;;
2546;SDS011;1283;47.982;7.834;2022-10-19T00:50:38;12.80;;;3.90;;
2546;SDS011;1283;47.982;7.834;2022-10-19T00:53:05;12.27;;;4.35;;
2546;SDS011;1283;47.982;7.834;2022-10-19T00:55:32;8.25;;;4.00;;
2546;SDS011;1283;47.982;7.834;2022-10-19T00:57:58;10.88;;;4.00;;
2546;SDS011;1283;47.982;7.834;2022-10-19T01:00:25;13.70;;;4.07;;
2546;SDS011;1283;47.982;7.834;2022-10-19T01:02:52;9.55;;;4.03;;
2546;SDS011;1283;47.982;7.834;2022-10-19T01:05:20;11.43;;;4.00;;
2546;SDS011;1283;47.982;7.834;2022-10-19T01:07:47;11.63;;;4.57;;
2546;SDS011;1283;47.982;7.834;2022-10-19T01:10:14;12.48;;;4.03;;
2546;SDS011;1283;47.982;7.834;2022-10-19T01:12:59;16.42;;;3.85;;
2546;SDS011;1283;47.982;7.834;2022-10-19T01:15:32;14.07;;;4.32;;
2546;SDS011;1283;47.982;7.834;2022-10-19T01:18:04;19.15;;;4.82;;
2546;SDS011;1283;47.982;7.834;2022-10-19T01:20:59;15.48;;;4.10;;
2546;SDS011;1283;47.982;7.834;2022-10-19T01:26:49;12.85;;;4.75;;
2546;SDS011;1283;47.982;7.834;2022-10-19T01:29:31;13.13;;;3.63;;
2546;SDS011;1283;47.982;7.834;2022-10-19T01:32:12;17.02;;;3.95;;
2546;SDS011;1283;47.982;7.834;2022-10-19T01:34:43;5.85;;;4.18;;
2546;SDS011;1283;47.982;7.834;2022-10-19T01:37:14;6.88;;;4.10;;
2546;SDS011;1283;47.982;7.834;2022-10-19T01:39:44;12.05;;;4.32;;
2546;SDS011;1283;47.982;7.834;2022-10-19T01:42:16;10.88;;;4.05;;
2546;SDS011;1283;47.982;7.834;2022-10-19T01:44:48;12.48;;;4.25;;
2546;SDS011;1283;47.982;7.834;2022-10-19T01:47:19;11.82;;;4.53;;
2546;SDS011;1283;47.982;7.834;2022-10-19T01:49:48;10.75;;;4.38;;
2546;SDS011;1283;47.982;7.834;2022-10-19T01:52:16;9.65;;;3.65;;
2546;SDS011;1283;47.982;7.834;2022-10-19T01:54:46;7.38;;;3.33;;
2546;SDS011;1283;47.982;7.834;2022-10-19T01:57:18;18.17;;;3.35;;
2546;SDS011;1283;47.982;7.834;2022-10-19T01:59:48;10.05;;;4.93;;
2546;SDS011;1283;47.982;7.834;2022-10-19T02:02:14;8.75;;;3.95;;
2546;SDS011;1283;47.982;7.834;2022-10-19T02:04:43;15.82;;;4.80;;
2546;SDS011;1283;47.982;7.834;2022-10-19T02:07:10;7.13;;;3.80;;
2546;SDS011;1283;47.982;7.834;2022-10-19T02:09:36;14.82;;;4.40;;
2546;SDS011;1283;47.982;7.834;2022-10-19T02:12:04;22.80;;;5.45;;
2546;SDS011;1283;47.982;7.834;2022-10-19T02:14:35;13.20;;;5.43;;
2546;SDS011;1283;47.982;7.834;2022-10-19T02:17:04;13.02;;;4.57;;
2546;SDS011;1283;47.982;7.834;2022-10-19T02:19:32;17.90;;;4.75;;
2546;SDS011;1283;47.982;7.834;2022-10-19T02:22:00;13.05;;;5.20;;
2546;SDS011;1283;47.982;7.834;2022-10-19T02:24:27;19.30;;;5.28;;
2546;SDS011;1283;47.982;7.834;2022-10-19T02:26:54;13.43;;;5.03;;
2546;SDS011;1283;47.982;7.834;2022-10-19T02:29:21;14.73;;;4.53;;
2546;SDS011;1283;47.982;7.834;2022-10-19T02:31:48;15.05;;;4.72;;
2546;SDS011;1283;47.982;7.834;2022-10-19T02:34:14;12.25;;;4.63;;
2546;SDS011;1283;47.982;7.834;2022-10-19T02:36:41;15.93;;;4.85;;
2546;SDS011;1283;47.982;7.834;2022-10-19T02:39:09;11.55;;;4.60;;
2546;SDS011;1283;47.982;7.834;2022-10-19T02:41:36;9.80;;;4.25;;
2546;SDS011;1283;47.982;7.834;2022-10-19T02:44:06;15.02;;;5.00;;
2546;SDS011;1283;47.982;7.834;2022-10-19T02:46:37;11.88;;;4.45;;
2546;SDS011;1283;47.982;7.834;2022-10-19T02:49:06;7.80;;;4.10;;
2546;SDS011;1283;47.982;7.834;2022-10-19T02:51:34;16.02;;;4.45;;
2546;SDS011;1283;47.982;7.834;2022-10-19T02:54:02;9.43;;;4.57;;
2546;SDS011;1283;47.982;7.834;2022-10-19T02:56:31;16.55;;;3.85;;
2546;SDS011;1283;47.982;7.834;2022-10-19T02:58:58;12.25;;;3.70;;
2546;SDS011;1283;47.982;7.834;2022-10-19T03:01:24;9.93;;;3.75;;
2546;SDS011;1283;47.982;7.834;2022-10-19T03:03:51;8.93;;;3.75;;
2546;SDS011;1283;47.982;7.834;2022-10-19T03:06:17;11.55;;;4.03;;
2546;SDS011;1283;47.982;7.834;2022-10-19T03:08:44;14.60;;;4.00;;
2546;SDS011;1283;47.982;7.834;2022-10-19T03:11:10;20.75;;;4.63;;
2546;SDS011;1283;47.982;7.834;2022-10-19T03:13:38;18.58;;;5.18;;
2546;SDS011;1283;47.982;7.834;2022-10-19T03:16:06;16.02;;;5.38;;
2546;SDS011;1283;47.982;7.834;2022-10-19T03:18:33;16.17;;;5.28;;
2546;SDS011;1283;47.982;7.834;2022-10-19T03:21:00;23.33;;;6.80;;
2546;SDS011;1283;47.982;7.834;2022-10-19T03:23:28;23.65;;;7.63;;
2546;SDS011;1283;47.982;7.834;2022-10-19T03:25:54;24.80;;;9.07;;
2546;SDS011;1283;47.982;7.834;2022-10-19T03:28:21;40.53;;;10.30;;
2546;SDS011;1283;47.982;7.834;2022-10-19T03:30:48;29.55;;;9.63;;
2546;SDS011;1283;47.982;7.834;2022-10-19T03:33:15;27.08;;;9.75;;
2546;SDS011;1283;47.982;7.834;2022-10-19T03:35:41;21.63;;;10.20;;
2546;SDS011;1283;47.982;7.834;2022-10-19T03:38:08;21.73;;;9.85;;
2546;SDS011;1283;47.982;7.834;2022-10-19T03:40:34;26.35;;;10.13;;
2546;SDS011;1283;47.982;7.834;2022-10-19T03:43:01;19.20;;;9.95;;
2546;SDS011;1283;47.982;7.834;2022-10-19T03:45:27;30.08;;;11.88;;
2546;SDS011;1283;47.982;7.834;2022-10-19T03:47:55;38.72;;;10.25;;
2546;SDS011;1283;47.982;7.834;2022-10-19T03:50:22;27.40;;;10.95;;
2546;SDS011;1283;47.982;7.834;2022-10-19T03:52:48;23.48;;;10.57;;
2546;SDS011;1283;47.982;7.834;2022-10-19T03:55:15;22.30;;;10.60;;
2546;SDS011;1283;47.982;7.834;2022-10-19T03:57:42;32.08;;;11.52;;
2546;SDS011;1283;47.982;7.834;2022-10-19T04:00:08;23.85;;;10.50;;
2546;SDS011;1283;47.982;7.834;2022-10-19T04:02:36;39.08;;;10.18;;
2546;SDS011;1283;47.982;7.834;2022-10-19T04:05:04;35.72;;;10.90;;
2546;SDS011;1283;47.982;7.834;2022-10-19T04:07:31;65.50;;;11.25;;
2546;SDS011;1283;47.982;7.834;2022-10-19T04:09:58;37.22;;;9.75;;
2546;SDS011;1283;47.982;7.834;2022-10-19T04:12:24;17.33;;;8.40;;
2546;SDS011;1283;47.982;7.834;2022-10-19T04:14:51;22.77;;;9.23;;
2546;SDS011;1283;47.982;7.834;2022-10-19T04:17:17;25.67;;;8.63;;
2546;SDS011;1283;47.982;7.834;2022-10-19T04:19:44;19.20;;;8.10;;
2546;SDS011;1283;47.982;7.834;2022-10-19T04:22:11;50.13;;;9.68;;
2546;SDS011;1283;47.982;7.834;2022-10-19T04:24:38;34.92;;;9.48;;
2546;SDS011;1283;47.982;7.834;2022-10-19T04:27:04;29.15;;;9.35;;
2546;SDS011;1283;47.982;7.834;2022-10-19T04:29:31;36.72;;;8.82;;
2546;SDS011;1283;47.982;7.834;2022-10-19T04:31:57;22.88;;;9.00;;
2546;SDS011;1283;47.982;7.834;2022-10-19T04:34:24;19.20;;;9.93;;
2546;SDS011;1283;47.982;7.834;2022-10-19T04:36:51;23.33;;;9.52;;
2546;SDS011;1283;47.982;7.834;2022-10-19T04:39:19;16.42;;;8.65;;
2546;SDS011;1283;47.982;7.834;2022-10-19T04:41:45;30.02;;;8.68;;
2546;SDS011;1283;47.982;7.834;2022-10-19T04:44:12;27.63;;;9.48;;
2546;SDS011;1283;47.982;7.834;2022-10-19T04:46:39;35.08;;;8.65;;
2546;SDS011;1283;47.982;7.834;2022-10-19T04:49:05;32.58;;;8.60;;
2546;SDS011;1283;47.982;7.834;2022-10-19T04:51:32;54.55;;;9.52;;
2546;SDS011;1283;47.982;7.834;2022-10-19T04:53:59;32.63;;;7.78;;
2546;SDS011;1283;47.982;7.834;2022-10-19T04:56:27;14.18;;;8.10;;
2546;SDS011;1283;47.982;7.834;2022-10-19T04:58:54;14.25;;;8.40;;
2546;SDS011;1283;47.982;7.834;2022-10-19T05:01:22;31.58;;;9.02;;
2546;SDS011;1283;47.982;7.834;2022-10-19T05:03:52;72.75;;;10.88;;
2546;SDS011;1283;47.982;7.834;2022-10-19T05:06:19;26.23;;;10.27;;
2546;SDS011;1283;47.982;7.834;2022-10-19T05:08:46;157.57;;;14.35;;
2546;SDS011;1283;47.982;7.834;2022-10-19T05:11:13;43.75;;;10.95;;
2546;SDS011;1283;47.982;7.834;2022-10-19T05:13:41;72.88;;;10.32;;
2546;SDS011;1283;47.982;7.834;2022-10-19T05:16:09;30.77;;;8.65;;
2546;SDS011;1283;47.982;7.834;2022-10-19T05:18:37;79.82;;;9.05;;
2546;SDS011;1283;47.982;7.834;2022-10-19T05:21:05;85.32;;;10.38;;
2546;SDS011;1283;47.982;7.834;2022-10-19T05:23:33;41.65;;;9.27;;
2546;SDS011;1283;47.982;7.834;2022-10-19T05:26:00;68.68;;;9.60;;
2546;SDS011;1283;47.982;7.834;2022-10-19T05:28:28;29.15;;;9.27;;
2546;SDS011;1283;47.982;7.834;2022-10-19T05:31:03;19.92;;;8.57;;
2546;SDS011;1283;47.982;7.834;2022-10-19T05:33:30;19.77;;;8.50;;
2546;SDS011;1283;47.982;7.834;2022-10-19T05:35:57;20.00;;;8.50;;
2546;SDS011;1283;47.982;7.834;2022-10-19T05:38:23;22.55;;;7.75;;
2546;SDS011;1283;47.982;7.834;2022-10-19T05:40:49;25.52;;;7.55;;
2546;SDS011;1283;47.982;7.834;2022-10-19T05:43:16;14.88;;;8.20;;
2546;SDS011;1283;47.982;7.834;2022-10-19T05:45:42;23.65;;;8.18;;
2546;SDS011;1283;47.982;7.834;2022-10-19T05:48:10;47.13;;;7.75;;
2546;SDS011;1283;47.982;7.834;2022-10-19T05:50:36;93.72;;;9.00;;
2546;SDS011;1283;47.982;7.834;2022-10-19T05:53:03;59.97;;;10.43;;
2546;SDS011;1283;47.982;7.834;2022-10-19T05:55:32;114.72;;;9.68;;
2546;SDS011;1283;47.982;7.834;2022-10-19T05:57:59;72.55;;;9.38;;
2546;SDS011;1283;47.982;7.834;2022-10-19T06:00:26;54.90;;;8.35;;
2546;SDS011;1283;47.982;7.834;2022-10-19T06:02:52;61.15;;;9.25;;
2546;SDS011;1283;47.982;7.834;2022-10-19T06:05:20;65.00;;;8.80;;
2546;SDS011;1283;47.982;7.834;2022-10-19T06:07:46;74.95;;;9.32;;
2546;SDS011;1283;47.982;7.834;2022-10-19T06:10:13;109.95;;;11.07;;
2546;SDS011;1283;47.982;7.834;2022-10-19T06:12:39;87.68;;;10.70;;
2546;SDS011;1283;47.982;7.834;2022-10-19T06:15:06;45.55;;;10.65;;
2546;SDS011;1283;47.982;7.834;2022-10-19T06:17:33;52.83;;;9.45;;
2546;SDS011;1283;47.982;7.834;2022-10-19T06:20:00;22.92;;;9.02;;
2546;SDS011;1283;47.982;7.834;2022-10-19T06:22:27;33.05;;;9.48;;
2546;SDS011;1283;47.982;7.834;2022-10-19T06:24:54;21.25;;;8.55;;
2546;SDS011;1283;47.982;7.834;2022-10-19T06:27:21;19.80;;;8.60;;
2546;SDS011;1283;47.982;7.834;2022-10-19T06:29:47;16.63;;;7.95;;
2546;SDS011;1283;47.982;7.834;2022-10-19T06:32:14;19.92;;;8.20;;
2546;SDS011;1283;47.982;7.834;2022-10-19T06:34:40;13.93;;;7.32;;
2546;SDS011;1283;47.982;7.834;2022-10-19T06:37:07;15.10;;;7.20;;
2546;SDS011;1283;47.982;7.834;2022-10-19T06:39:34;14.95;;;7.38;;
2546;SDS011;1283;47.982;7.834;2022-10-19T06:42:01;15.98;;;7.40;;
2546;SDS011;1283;47.982;7.834;2022-10-19T06:44:27;15.77;;;6.88;;
2546;SDS011;1283;47.982;7.834;2022-10-19T06:46:54;14.90;;;6.43;;
2546;SDS011;1283;47.982;7.834;2022-10-19T06:49:20;15.02;;;7.28;;
2546;SDS011;1283;47.982;7.834;2022-10-19T06:51:47;15.20;;;7.10;;
2546;SDS011;1283;47.982;7.834;2022-10-19T06:54:13;13.38;;;7.00;;
2546;SDS011;1283;47.982;7.834;2022-10-19T06:56:41;14.35;;;6.40;;
2546;SDS011;1283;47.982;7.834;2022-10-19T06:59:08;20.02;;;6.75;;
2546;SDS011;1283;47.982;7.834;2022-10-19T07:01:36;13.75;;;6.97;;
2546;SDS011;1283;47.982;7.834;2022-10-19T07:04:03;22.48;;;7.03;;
2546;SDS011;1283;47.982;7.834;2022-10-19T07:06:29;17.73;;;7.15;;
2546;SDS011;1283;47.982;7.834;2022-10-19T07:08:56;14.85;;;7.18;;
2546;SDS011;1283;47.982;7.834;2022-10-19T07:11:22;16.25;;;7.00;;
2546;SDS011;1283;47.982;7.834;2022-10-19T07:13:50;17.17;;;7.75;;
2546;SDS011;1283;47.982;7.834;2022-10-19T07:16:17;16.33;;;7.63;;
2546;SDS011;1283;47.982;7.834;2022-10-19T07:18:44;16.40;;;7.40;;
2546;SDS011;1283;47.982;7.834;2022-10-19T07:21:11;18.50;;;7.30;;
2546;SDS011;1283;47.982;7.834;2022-10-19T07:23:40;14.73;;;7.80;;
2546;SDS011;1283;47.982;7.834;2022-10-19T07:26:08;23.50;;;7.03;;
2546;SDS011;1283;47.982;7.834;2022-10-19T07:28:36;16.70;;;7.75;;
2546;SDS011;1283;47.982;7.834;2022-10-19T07:31:06;17.77;;;7.82;;
2546;SDS011;1283;47.982;7.834;2022-10-19T07:33:33;19.13;;;7.68;;
2546;SDS011;1283;47.982;7.834;2022-10-19T07:36:00;14.40;;;7.13;;
2546;SDS011;1283;47.982;7.834;2022-10-19T07:38:26;18.27;;;7.75;;
2546;SDS011;1283;47.982;7.834;2022-10-19T07:41:00;14.50;;;7.45;;
2546;SDS011;1283;47.982;7.834;2022-10-19T07:43:28;46.53;;;15.50;;
2546;SDS011;1283;47.982;7.834;2022-10-19T07:45:58;31.60;;;14.07;;
2546;SDS011;1283;47.982;7.834;2022-10-19T07:48:27;19.88;;;10.02;;
2546;SDS011;1283;47.982;7.834;2022-10-19T07:50:53;12.90;;;7.40;;
2546;SDS011;1283;47.982;7.834;2022-10-19T07:53:20;13.60;;;6.90;;
2546;SDS011;1283;47.982;7.834;2022-10-19T07:55:47;19.27;;;8.27;;
2546;SDS011;1283;47.982;7.834;2022-10-19T07:58:14;21.10;;;8.25;;
2546;SDS011;1283;47.982;7.834;2022-10-19T08:00:40;22.95;;;7.35;;
2546;SDS011;1283;47.982;7.834;2022-10-19T08:03:07;13.38;;;7.38;;
2546;SDS011;1283;47.982;7.834;2022-10-19T08:05:35;21.50;;;8.40;;
2546;SDS011;1283;47.982;7.834;2022-10-19T08:08:02;28.83;;;8.45;;
2546;SDS011;1283;47.982;7.834;2022-10-19T08:10:28;18.98;;;8.90;;
2546;SDS011;1283;47.982;7.834;2022-10-19T08:12:55;21.23;;;9.18;;
2546;SDS011;1283;47.982;7.834;2022-10-19T08:15:21;22.63;;;9.48;;
2546;SDS011;1283;47.982;7.834;2022-10-19T08:17:50;21.55;;;9.32;;
2546;SDS011;1283;47.982;7.834;2022-10-19T08:20:16;17.33;;;9.90;;
2546;SDS011;1283;47.982;7.834;2022-10-19T08:22:44;14.23;;;8.30;;
2546;SDS011;1283;47.982;7.834;2022-10-19T08:25:11;18.13;;;8.65;;
2546;SDS011;1283;47.982;7.834;2022-10-19T08:27:38;29.40;;;8.48;;
2546;SDS011;1283;47.982;7.834;2022-10-19T08:30:05;16.38;;;7.63;;
2546;SDS011;1283;47.982;7.834;2022-10-19T08:32:32;15.82;;;7.97;;
2546;SDS011;1283;47.982;7.834;2022-10-19T08:34:59;12.77;;;7.30;;
2546;SDS011;1283;47.982;7.834;2022-10-19T08:37:25;18.00;;;8.48;;
2546;SDS011;1283;47.982;7.834;2022-10-19T08:39:53;14.60;;;7.68;;
2546;SDS011;1283;47.982;7.834;2022-10-19T08:42:21;14.93;;;7.53;;
2546;SDS011;1283;47.982;7.834;2022-10-19T08:44:52;13.88;;;7.72;;
2546;SDS011;1283;47.982;7.834;2022-10-19T08:47:27;12.50;;;6.93;;
2546;SDS011;1283;47.982;7.834;2022-10-19T08:50:04;11.73;;;7.40;;
2546;SDS011;1283;47.982;7.834;2022-10-19T08:52:39;13.25;;;7.00;;
2546;SDS011;1283;47.982;7.834;2022-10-19T08:55:09;15.10;;;7.05;;
2546;SDS011;1283;47.982;7.834;2022-10-19T08:57:39;14.43;;;7.63;;
2546;SDS011;1283;47.982;7.834;2022-10-19T09:00:10;17.38;;;8.18;;
2546;SDS011;1283;47.982;7.834;2022-10-19T09:02:46;12.57;;;6.80;;
2546;SDS011;1283;47.982;7.834;2022-10-19T09:05:19;14.32;;;7.15;;
2546;SDS011;1283;47.982;7.834;2022-10-19T09:07:49;13.73;;;7.65;;
2546;SDS011;1283;47.982;7.834;2022-10-19T09:10:20;17.25;;;8.48;;
2546;SDS011;1283;47.982;7.834;2022-10-19T09:12:50;14.30;;;6.93;;
2546;SDS011;1283;47.982;7.834;2022-10-19T09:15:21;17.02;;;9.07;;
2546;SDS011;1283;47.982;7.834;2022-10-19T09:17:51;11.77;;;7.28;;
2546;SDS011;1283;47.982;7.834;2022-10-19T09:20:18;14.18;;;7.55;;
2546;SDS011;1283;47.982;7.834;2022-10-19T09:22:48;13.90;;;6.45;;
2546;SDS011;1283;47.982;7.834;2022-10-19T09:25:17;14.50;;;6.78;;
2546;SDS011;1283;47.982;7.834;2022-10-19T09:27:47;58.85;;;34.85;;
2546;SDS011;1283;47.982;7.834;2022-10-19T09:30:16;24.35;;;8.18;;
2546;SDS011;1283;47.982;7.834;2022-10-19T09:32:44;14.48;;;7.72;;
2546;SDS011;1283;47.982;7.834;2022-10-19T09:35:16;12.18;;;7.03;;
2546;SDS011;1283;47.982;7.834;2022-10-19T09:37:47;14.50;;;7.88;;
2546;SDS011;1283;47.982;7.834;2022-10-19T09:40:16;17.67;;;6.78;;
2546;SDS011;1283;47.982;7.834;2022-10-19T09:42:45;12.20;;;6.43;;
2546;SDS011;1283;47.982;7.834;2022-10-19T09:45:16;19.15;;;7.43;;
2546;SDS011;1283;47.982;7.834;2022-10-19T09:47:46;14.35;;;7.63;;
2546;SDS011;1283;47.982;7.834;2022-10-19T09:50:15;10.98;;;7.13;;
2546;SDS011;1283;47.982;7.834;2022-10-19T09:52:44;10.55;;;6.22;;
2546;SDS011;1283;47.982;7.834;2022-10-19T09:55:25;11.02;;;6.93;;
2546;SDS011;1283;47.982;7.834;2022-10-19T09:58:01;15.35;;;7.60;;
2546;SDS011;1283;47.982;7.834;2022-10-19T10:00:34;13.95;;;7.07;;
2546;SDS011;1283;47.982;7.834;2022-10-19T10:03:02;12.55;;;7.30;;
2546;SDS011;1283;47.982;7.834;2022-10-19T10:05:30;12.15;;;6.50;;
2546;SDS011;1283;47.982;7.834;2022-10-19T10:07:57;11.32;;;7.47;;
2546;SDS011;1283;47.982;7.834;2022-10-19T10:10:26;14.13;;;7.47;;
2546;SDS011;1283;47.982;7.834;2022-10-19T10:12:53;13.02;;;6.60;;
2546;SDS011;1283;47.982;7.834;2022-10-19T10:15:22;16.98;;;6.72;;
2546;SDS011;1283;47.982;7.834;2022-10-19T10:17:50;14.25;;;7.25;;
2546;SDS011;1283;47.982;7.834;2022-10-19T10:20:18;13.10;;;6.90;;
2546;SDS011;1283;47.982;7.834;2022-10-19T10:22:53;12.05;;;7.22;;
2546;SDS011;1283;47.982;7.834;2022-10-19T10:25:23;12.32;;;7.40;;
2546;SDS011;1283;47.982;7.834;2022-10-19T10:27:53;10.70;;;7.22;;
2546;SDS011;1283;47.982;7.834;2022-10-19T10:30:21;11.93;;;6.43;;
2546;SDS011;1283;47.982;7.834;2022-10-19T10:32:48;12.98;;;6.70;;
2546;SDS011;1283;47.982;7.834;2022-10-19T10:35:17;11.55;;;7.25;;
2546;SDS011;1283;47.982;7.834;2022-10-19T10:37:45;13.23;;;8.10;;
2546;SDS011;1283;47.982;7.834;2022-10-19T10:40:16;17.10;;;7.88;;
2546;SDS011;1283;47.982;7.834;2022-10-19T10:42:45;12.55;;;7.82;;
2546;SDS011;1283;47.982;7.834;2022-10-19T10:45:15;13.95;;;8.48;;
2546;SDS011;1283;47.982;7.834;2022-10-19T10:47:44;15.98;;;8.13;;
2546;SDS011;1283;47.982;7.834;2022-10-19T10:50:14;17.58;;;8.93;;
2546;SDS011;1283;47.982;7.834;2022-10-19T10:52:53;19.52;;;8.80;;
2546;SDS011;1283;47.982;7.834;2022-10-19T10:55:21;14.43;;;8.85;;
2546;SDS011;1283;47.982;7.834;2022-10-19T10:57:50;13.73;;;8.15;;
2546;SDS011;1283;47.982;7.834;2022-10-19T11:00:20;17.35;;;8.60;;
2546;SDS011;1283;47.982;7.834;2022-10-19T11:02:50;15.15;;;8.00;;
2546;SDS011;1283;47.982;7.834;2022-10-19T11:05:18;16.05;;;8.45;;
2546;SDS011;1283;47.982;7.834;2022-10-19T11:07:50;17.02;;;9.43;;
2546;SDS011;1283;47.982;7.834;2022-10-19T11:10:20;16.50;;;9.45;;
2546;SDS011;1283;47.982;7.834;2022-10-19T11:12:50;18.23;;;9.40;;
2546;SDS011;1283;47.982;7.834;2022-10-19T11:15:21;18.65;;;9.27;;
2546;SDS011;1283;47.982;7.834;2022-10-19T11:17:53;17.88;;;9.05;;
2546;SDS011;1283;47.982;7.834;2022-10-19T11:20:24;17.88;;;9.45;;
2546;SDS011;1283;47.982;7.834;2022-10-19T11:22:53;19.15;;;9.48;;
2546;SDS011;1283;47.982;7.834;2022-10-19T11:25:28;15.40;;;9.57;;
2546;SDS011;1283;47.982;7.834;2022-10-19T11:28:02;16.65;;;9.70;;
2546;SDS011;1283;47.982;7.834;2022-10-19T11:30:45;19.23;;;10.23;;
2546;SDS011;1283;47.982;7.834;2022-10-19T11:33:19;16.80;;;10.15;;
2546;SDS011;1283;47.982;7.834;2022-10-19T11:35:53;18.25;;;9.65;;
2546;SDS011;1283;47.982;7.834;2022-10-19T11:38:31;19.60;;;9.85;;
2546;SDS011;1283;47.982;7.834;2022-10-19T11:41:04;18.08;;;9.68;;
2546;SDS011;1283;47.982;7.834;2022-10-19T11:43:39;19.27;;;9.32;;
2546;SDS011;1283;47.982;7.834;2022-10-19T11:46:12;17.58;;;9.57;;
2546;SDS011;1283;47.982;7.834;2022-10-19T11:48:50;17.60;;;9.85;;
2546;SDS011;1283;47.982;7.834;2022-10-19T11:51:25;15.35;;;9.73;;
2546;SDS011;1283;47.982;7.834;2022-10-19T11:54:00;16.95;;;9.55;;
2546;SDS011;1283;47.982;7.834;2022-10-19T11:56:33;17.48;;;10.57;;
2546;SDS011;1283;47.982;7.834;2022-10-19T11:59:04;20.00;;;10.52;;
2546;SDS011;1283;47.982;7.834;2022-10-19T12:01:40;18.05;;;10.20;;
2546;SDS011;1283;47.982;7.834;2022-10-19T12:04:20;28.58;;;10.68;;
2546;SDS011;1283;47.982;7.834;2022-10-19T12:06:54;15.70;;;9.48;;
2546;SDS011;1283;47.982;7.834;2022-10-19T12:09:30;16.65;;;9.88;;
2546;SDS011;1283;47.982;7.834;2022-10-19T12:12:04;16.05;;;10.00;;
2546;SDS011;1283;47.982;7.834;2022-10-19T12:14:38;19.52;;;10.40;;
2546;SDS011;1283;47.982;7.834;2022-10-19T12:17:06;22.33;;;11.15;;
2546;SDS011;1283;47.982;7.834;2022-10-19T12:19:37;14.68;;;9.10;;
2546;SDS011;1283;47.982;7.834;2022-10-19T12:22:06;19.27;;;10.23;;
2546;SDS011;1283;47.982;7.834;2022-10-19T12:24:38;19.65;;;11.40;;
2546;SDS011;1283;47.982;7.834;2022-10-19T12:27:05;19.02;;;10.18;;
2546;SDS011;1283;47.982;7.834;2022-10-19T12:29:32;19.13;;;10.55;;
2546;SDS011;1283;47.982;7.834;2022-10-19T12:32:00;23.48;;;11.07;;
2546;SDS011;1283;47.982;7.834;2022-10-19T12:34:30;18.60;;;11.50;;
2546;SDS011;1283;47.982;7.834;2022-10-19T12:37:04;18.92;;;11.45;;
2546;SDS011;1283;47.982;7.834;2022-10-19T12:39:34;21.08;;;11.75;;
2546;SDS011;1283;47.982;7.834;2022-10-19T12:42:05;22.55;;;11.48;;
2546;SDS011;1283;47.982;7.834;2022-10-19T12:47:32;24.13;;;13.00;;
2546;SDS011;1283;47.982;7.834;2022-10-19T12:49:58;23.95;;;13.40;;
2546;SDS011;1283;47.982;7.834;2022-10-19T12:52:37;24.88;;;12.35;;
2546;SDS011;1283;47.982;7.834;2022-10-19T12:55:21;24.63;;;12.52;;
2546;SDS011;1283;47.982;7.834;2022-10-19T12:58:00;22.23;;;12.65;;
2546;SDS011;1283;47.982;7.834;2022-10-19T13:00:29;22.33;;;12.15;;
2546;SDS011;1283;47.982;7.834;2022-10-19T13:02:58;38.15;;;13.52;;
2546;SDS011;1283;47.982;7.834;2022-10-19T13:05:27;30.58;;;14.32;;
2546;SDS011;1283;47.982;7.834;2022-10-19T13:07:56;26.77;;;14.00;;
2546;SDS011;1283;47.982;7.834;2022-10-19T13:10:24;27.92;;;14.38;;
2546;SDS011;1283;47.982;7.834;2022-10-19T13:12:52;28.90;;;14.20;;
2546;SDS011;1283;47.982;7.834;2022-10-19T13:24:36;26.50;;;13.68;;
2546;SDS011;1283;47.982;7.834;2022-10-19T13:30:03;24.70;;;13.05;;
2546;SDS011;1283;47.982;7.834;2022-10-19T13:32:34;27.63;;;15.00;;
2546;SDS011;1283;47.982;7.834;2022-10-19T13:41:05;30.80;;;15.00;;
2546;SDS011;1283;47.982;7.834;2022-10-19T13:43:36;28.85;;;15.93;;
2546;SDS011;1283;47.982;7.834;2022-10-19T13:46:07;28.70;;;15.25;;
2546;SDS011;1283;47.982;7.834;2022-10-19T13:48:37;23.15;;;13.70;;
2546;SDS011;1283;47.982;7.834;2022-10-19T13:51:13;26.95;;;14.98;;
2546;SDS011;1283;47.982;7.834;2022-10-19T13:53:45;38.05;;;16.52;;
2546;SDS011;1283;47.982;7.834;2022-10-19T14:05:10;34.38;;;16.65;;
2546;SDS011;1283;47.982;7.834;2022-10-19T14:08:02;28.00;;;14.88;;
2546;SDS011;1283;47.982;7.834;2022-10-19T14:10:33;31.20;;;14.98;;
2546;SDS011;1283;47.982;7.834;2022-10-19T14:13:02;28.83;;;14.07;;
2546;SDS011;1283;47.982;7.834;2022-10-19T14:15:31;26.63;;;13.82;;
2546;SDS011;1283;47.982;7.834;2022-10-19T14:17:59;23.25;;;13.25;;
2546;SDS011;1283;47.982;7.834;2022-10-19T14:20:27;28.60;;;14.18;;
2546;SDS011;1283;47.982;7.834;2022-10-19T14:22:55;26.17;;;13.30;;
2546;SDS011;1283;47.982;7.834;2022-10-19T14:25:22;27.27;;;14.05;;
2546;SDS011;1283;47.982;7.834;2022-10-19T14:27:53;29.02;;;14.43;;
2546;SDS011;1283;47.982;7.834;2022-10-19T14:30:25;27.42;;;13.23;;
2546;SDS011;1283;47.982;7.834;2022-10-19T14:32:53;28.02;;;14.93;;
2546;SDS011;1283;47.982;7.834;2022-10-19T14:35:21;32.60;;;14.52;;
2546;SDS011;1283;47.982;7.834;2022-10-19T14:37:48;24.80;;;13.05;;
2546;SDS011;1283;47.982;7.834;2022-10-19T14:40:22;30.00;;;14.43;;
2546;SDS011;1283;47.982;7.834;2022-10-19T14:42:51;30.73;;;15.00;;
2546;SDS011;1283;47.982;7.834;2022-10-19T14:45:19;31.02;;;13.85;;
2546;SDS011;1283;47.982;7.834;2022-10-19T14:47:52;24.75;;;14.57;;
2546;SDS011;1283;47.982;7.834;2022-10-19T14:50:20;24.73;;;13.82;;
2546;SDS011;1283;47.982;7.834;2022-10-19T14:52:50;28.13;;;13.55;;
2546;SDS011;1283;47.982;7.834;2022-10-19T14:55:20;26.13;;;12.48;;
2546;SDS011;1283;47.982;7.834;2022-10-19T14:57:48;22.98;;;12.77;;
2546;SDS011;1283;47.982;7.834;2022-10-19T15:00:16;27.00;;;12.82;;
2546;SDS011;1283;47.982;7.834;2022-10-19T15:02:45;28.00;;;13.05;;
2546;SDS011;1283;47.982;7.834;2022-10-19T15:05:17;31.55;;;14.13;;
2546;SDS011;1283;47.982;7.834;2022-10-19T15:07:45;25.52;;;13.85;;
2546;SDS011;1283;47.982;7.834;2022-10-19T15:10:16;24.60;;;13.52;;
2546;SDS011;1283;47.982;7.834;2022-10-19T15:12:44;28.83;;;13.85;;
2546;SDS011;1283;47.982;7.834;2022-10-19T15:15:13;30.35;;;13.07;;
2546;SDS011;1283;47.982;7.834;2022-10-19T15:17:50;27.65;;;14.13;;
2546;SDS011;1283;47.982;7.834;2022-10-19T15:20:23;28.58;;;13.80;;
2546;SDS011;1283;47.982;7.834;2022-10-19T15:22:51;23.35;;;13.02;;
2546;SDS011;1283;47.982;7.834;2022-10-19T15:25:22;27.90;;;13.40;;
2546;SDS011;1283;47.982;7.834;2022-10-19T15:27:51;25.63;;;12.93;;
2546;SDS011;1283;47.982;7.834;2022-10-19T15:30:27;24.65;;;13.45;;
2546;SDS011;1283;47.982;7.834;2022-10-19T15:32:56;28.60;;;12.65;;
2546;SDS011;1283;47.982;7.834;2022-10-19T15:35:37;21.88;;;12.23;;
2546;SDS011;1283;47.982;7.834;2022-10-19T15:38:05;21.55;;;12.95;;
2546;SDS011;1283;47.982;7.834;2022-10-19T15:40:34;23.65;;;13.32;;
2546;SDS011;1283;47.982;7.834;2022-10-19T15:45:58;21.67;;;13.07;;